createdAt,value
2024-04-15T00:00:49.358Z,13.65
2024-04-15T00:03:16.408Z,13.55
2024-04-15T00:05:48.545Z,13.50
2024-04-15T00:08:16.389Z,13.75
2024-04-15T00:10:46.340Z,13.59
2024-04-15T00:13:13.310Z,13.64
2024-04-15T00:15:45.578Z,13.38
2024-04-15T00:18:12.520Z,13.71
2024-04-15T00:20:42.034Z,13.91
2024-04-15T00:23:11.709Z,13.51
2024-04-15T00:25:41.212Z,13.61
2024-04-15T00:28:08.164Z,13.59
2024-04-15T00:30:37.796Z,13.42
2024-04-15T00:33:05.278Z,13.35
2024-04-15T00:35:34.873Z,13.35
2024-04-15T00:38:01.784Z,13.31
2024-04-15T00:40:34.184Z,13.43
2024-04-15T00:43:02.324Z,13.37
2024-04-15T00:45:34.706Z,13.50
2024-04-15T00:48:03.449Z,13.49
2024-04-15T00:50:34.619Z,13.53
2024-04-15T00:53:03.697Z,13.51
2024-04-15T00:55:38.287Z,13.64
2024-04-15T00:58:06.569Z,13.31
2024-04-15T01:00:36.741Z,13.32
2024-04-15T01:03:05.715Z,13.13
2024-04-15T01:05:35.987Z,12.99
2024-04-15T01:08:03.020Z,12.87
2024-04-15T01:10:50.618Z,12.93
2024-04-15T01:13:22.324Z,13.00
2024-04-15T01:15:58.635Z,12.81
2024-04-15T01:18:26.299Z,12.67
2024-04-15T01:20:58.661Z,12.77
2024-04-15T01:23:29.048Z,13.14
2024-04-15T01:26:01.160Z,13.16
2024-04-15T01:28:28.106Z,13.25
2024-04-15T01:30:59.094Z,13.40
2024-04-15T01:33:26.046Z,13.34
2024-04-15T01:35:55.541Z,13.33
2024-04-15T01:38:24.256Z,13.58
2024-04-15T01:40:53.782Z,12.96
2024-04-15T01:43:23.430Z,12.73
2024-04-15T01:45:53.204Z,12.61
2024-04-15T01:48:20.746Z,12.61
2024-04-15T01:50:50.315Z,12.62
2024-04-15T01:53:17.256Z,12.75
2024-04-15T01:55:47.330Z,12.83
2024-04-15T01:58:14.337Z,12.93
2024-04-15T02:00:46.658Z,12.94
2024-04-15T02:03:13.639Z,12.88
2024-04-15T02:05:43.155Z,12.85
2024-04-15T02:08:10.118Z,13.01
2024-04-15T02:10:39.603Z,13.04
2024-04-15T02:13:06.541Z,12.96
2024-04-15T02:15:36.112Z,12.95
2024-04-15T02:18:05.880Z,12.44
2024-04-15T02:20:35.524Z,12.24
2024-04-15T02:23:02.424Z,12.30
2024-04-15T02:25:31.921Z,12.43
2024-04-15T02:27:58.918Z,12.58
2024-04-15T02:30:28.443Z,12.30
2024-04-15T02:32:55.369Z,12.49
2024-04-15T02:35:27.500Z,12.44
2024-04-15T02:37:54.432Z,12.25
2024-04-15T02:40:24.006Z,12.00
2024-04-15T02:42:50.972Z,12.08
2024-04-15T02:45:20.480Z,11.95
2024-04-15T02:47:47.537Z,11.94
2024-04-15T02:50:17.218Z,12.02
2024-04-15T02:52:49.342Z,11.99
2024-04-15T02:55:16.612Z,11.95
2024-04-15T02:57:46.216Z,11.67
2024-04-15T03:00:13.381Z,11.61
2024-04-15T03:02:42.935Z,11.73
2024-04-15T03:05:09.885Z,11.67
2024-04-15T03:07:39.464Z,11.64
2024-04-15T03:10:11.908Z,11.54
2024-04-15T03:12:38.854Z,11.70
2024-04-15T03:15:08.915Z,11.76
2024-04-15T03:17:39.252Z,11.71
2024-04-15T03:20:09.784Z,11.59
2024-04-15T03:22:36.693Z,11.42
2024-04-15T03:25:06.435Z,11.46
2024-04-15T03:27:35.965Z,11.45
2024-04-15T03:30:05.618Z,11.37
2024-04-15T03:32:32.548Z,11.33
2024-04-15T03:35:02.098Z,11.35
2024-04-15T03:37:31.642Z,11.23
2024-04-15T03:40:01.458Z,11.20
2024-04-15T03:42:31.021Z,11.27
2024-04-15T03:45:03.207Z,11.08
2024-04-15T03:47:30.261Z,11.14
2024-04-15T03:49:59.830Z,11.16
2024-04-15T03:52:26.778Z,11.17
2024-04-15T03:54:56.278Z,11.23
2024-04-15T03:57:23.247Z,11.19
2024-04-15T03:59:52.759Z,11.20
2024-04-15T04:02:22.263Z,11.17
2024-04-15T04:04:51.919Z,11.21
2024-04-15T04:07:22.346Z,10.96
2024-04-15T04:09:51.910Z,10.96
2024-04-15T04:12:19.140Z,10.93
2024-04-15T04:14:48.685Z,11.11
2024-04-15T04:17:15.687Z,10.98
2024-04-15T04:19:49.567Z,11.03
2024-04-15T04:22:16.547Z,10.88
2024-04-15T04:24:46.256Z,10.97
2024-04-15T04:27:13.236Z,11.08
2024-04-15T04:29:42.890Z,11.05
2024-04-15T04:32:09.857Z,10.97
2024-04-15T04:34:39.339Z,10.85
2024-04-15T04:37:08.898Z,10.79
2024-04-15T04:39:38.428Z,11.01
2024-04-15T04:42:05.553Z,11.00
2024-04-15T04:44:35.112Z,10.94
2024-04-15T04:47:02.121Z,10.98
2024-04-15T04:49:31.619Z,11.04
2024-04-15T04:51:58.544Z,11.02
2024-04-15T04:54:30.675Z,11.10
2024-04-15T04:56:57.596Z,10.77
2024-04-15T04:59:27.705Z,10.92
2024-04-15T05:01:54.707Z,10.53
2024-04-15T05:04:24.497Z,10.88
2024-04-15T05:06:51.469Z,10.80
2024-04-15T05:09:21.199Z,10.71
2024-04-15T05:11:51.253Z,10.63
2024-04-15T05:14:20.837Z,10.28
2024-04-15T05:16:49.367Z,10.57
2024-04-15T05:19:18.993Z,10.24
2024-04-15T05:21:45.948Z,10.38
2024-04-15T05:24:15.747Z,10.41
2024-04-15T05:26:42.686Z,10.48
2024-04-15T05:29:14.837Z,10.31
2024-04-15T05:31:41.832Z,10.42
2024-04-15T05:34:11.490Z,10.06
2024-04-15T05:36:38.438Z,10.07
2024-04-15T05:39:07.966Z,9.83
2024-04-15T05:41:34.856Z,9.96
2024-04-15T05:44:04.533Z,9.98
2024-04-15T05:46:34.067Z,10.04
2024-04-15T05:49:03.652Z,9.97
2024-04-15T05:51:30.599Z,9.86
2024-04-15T05:54:00.292Z,9.94
2024-04-15T05:56:27.275Z,10.17
2024-04-15T05:58:56.746Z,10.25
2024-04-15T06:01:23.670Z,10.25
2024-04-15T06:03:56.036Z,10.16
2024-04-15T06:06:23.097Z,10.10
2024-04-15T06:08:52.607Z,10.33
2024-04-15T06:11:19.527Z,10.09
2024-04-15T06:13:49.039Z,10.02
2024-04-15T06:16:16.069Z,10.04
2024-04-15T06:18:45.734Z,9.98
2024-04-15T06:21:17.063Z,10.06
2024-04-15T06:23:46.927Z,10.02
2024-04-15T06:26:14.320Z,10.02
2024-04-15T06:28:43.821Z,10.09
2024-04-15T06:31:11.286Z,10.13
2024-04-15T06:33:40.783Z,10.23
2024-04-15T06:36:07.923Z,10.17
2024-04-15T06:38:40.087Z,10.00
2024-04-15T06:41:07.012Z,10.01
2024-04-15T06:43:36.956Z,10.28
2024-04-15T06:46:04.214Z,9.86
2024-04-15T06:48:33.827Z,10.14
2024-04-15T06:51:00.753Z,10.03
2024-04-15T06:53:30.287Z,9.96
2024-04-15T06:56:00.006Z,10.01
2024-04-15T06:58:30.180Z,10.22
2024-04-15T07:00:57.982Z,10.30
2024-04-15T07:03:27.642Z,10.36
2024-04-15T07:05:54.662Z,10.03
2024-04-15T07:08:24.170Z,10.21
2024-04-15T07:10:52.862Z,10.28
2024-04-15T07:13:26.029Z,10.36
2024-04-15T07:15:53.101Z,10.55
2024-04-15T07:18:22.648Z,10.60
2024-04-15T07:20:49.583Z,10.72
2024-04-15T07:23:21.595Z,10.81
2024-04-15T07:25:56.512Z,10.91
2024-04-15T07:28:29.048Z,10.85
2024-04-15T07:30:56.989Z,10.86
2024-04-15T07:33:27.312Z,10.73
2024-04-15T07:35:54.962Z,10.57
2024-04-15T07:38:24.625Z,10.87
2024-04-15T07:40:53.014Z,11.03
2024-04-15T07:43:22.596Z,11.14
2024-04-15T07:45:52.196Z,11.34
2024-04-15T07:48:21.735Z,11.32
2024-04-15T07:50:48.651Z,11.58
2024-04-15T07:53:18.143Z,11.46
2024-04-15T07:55:45.401Z,11.65
2024-04-15T07:58:15.075Z,11.30
2024-04-15T08:00:42.006Z,11.10
2024-04-15T08:03:14.230Z,11.09
2024-04-15T08:05:41.421Z,10.94
2024-04-15T08:08:11.831Z,11.04
2024-04-15T08:10:38.844Z,10.95
2024-04-15T08:13:08.390Z,11.00
2024-04-15T08:15:35.365Z,11.10
2024-04-15T08:18:05.008Z,11.19
2024-04-15T08:20:34.569Z,11.04
2024-04-15T08:23:04.090Z,11.27
2024-04-15T08:25:31.046Z,11.22
2024-04-15T08:28:00.583Z,11.31
2024-04-15T08:30:27.560Z,11.39
2024-04-15T08:32:57.313Z,11.33
2024-04-15T08:35:24.319Z,11.43
2024-04-15T08:37:56.467Z,11.65
2024-04-15T08:40:23.437Z,11.32
2024-04-15T08:42:54.943Z,11.54
2024-04-15T08:45:24.575Z,11.62
2024-04-15T08:47:55.383Z,11.71
2024-04-15T08:50:23.259Z,11.91
2024-04-15T08:52:53.357Z,12.14
2024-04-15T08:55:24.204Z,12.16
2024-04-15T08:57:56.030Z,12.06
2024-04-15T09:00:23.494Z,12.26
2024-04-15T09:02:57.832Z,12.19
2024-04-15T09:05:25.016Z,12.18
2024-04-15T09:07:54.665Z,12.15
2024-04-15T09:10:24.414Z,12.06
2024-04-15T09:12:54.070Z,12.01
2024-04-15T09:15:22.196Z,12.17
2024-04-15T09:17:52.242Z,12.30
2024-04-15T09:20:29.818Z,12.50
2024-04-15T09:23:13.123Z,12.55
2024-04-15T09:25:42.684Z,12.54
2024-04-15T09:28:12.275Z,12.49
2024-04-15T09:30:39.207Z,12.47
2024-04-15T09:33:12.428Z,12.93
2024-04-15T09:35:39.572Z,13.32
2024-04-15T09:38:12.735Z,13.40
2024-04-15T09:40:43.313Z,13.24
2024-04-15T09:43:14.032Z,13.19
2024-04-15T09:45:41.028Z,13.15
2024-04-15T09:48:18.376Z,13.15
2024-04-15T09:50:49.820Z,13.08
2024-04-15T09:53:27.110Z,12.95
2024-04-15T09:56:03.656Z,12.84
2024-04-15T09:58:37.058Z,12.80
2024-04-15T10:01:07.001Z,13.19
2024-04-15T10:03:38.950Z,13.44
2024-04-15T10:06:07.830Z,13.19
2024-04-15T10:08:41.682Z,13.20
2024-04-15T10:11:12.695Z,13.15
2024-04-15T10:13:42.804Z,13.09
2024-04-15T10:16:31.070Z,13.14
2024-04-15T10:19:14.157Z,13.17
2024-04-15T10:21:43.484Z,12.96
2024-04-15T10:24:15.262Z,13.28
2024-04-15T10:26:47.203Z,13.12
2024-04-15T10:29:21.222Z,13.54
2024-04-15T10:31:52.060Z,13.71
2024-04-15T10:34:24.423Z,13.83
2024-04-15T10:36:51.802Z,13.59
2024-04-15T10:39:23.173Z,13.76
2024-04-15T10:41:53.445Z,14.08
2024-04-15T10:44:23.774Z,14.09
2024-04-15T10:46:50.702Z,14.00
2024-04-15T10:49:20.801Z,13.90
2024-04-15T10:51:47.917Z,13.43
2024-04-15T10:54:17.534Z,13.31
2024-04-15T10:56:47.174Z,13.43
2024-04-15T10:59:17.753Z,13.60
2024-04-15T11:01:47.927Z,13.91
2024-04-15T11:04:15.310Z,13.95
2024-04-15T11:06:45.104Z,14.06
2024-04-15T11:09:12.354Z,14.14
2024-04-15T11:11:42.059Z,14.29
2024-04-15T11:14:11.651Z,14.36
2024-04-15T11:16:49.492Z,14.32
2024-04-15T11:19:17.905Z,14.38
2024-04-15T11:21:48.824Z,14.60
2024-04-15T11:24:17.417Z,14.70
2024-04-15T11:26:50.091Z,14.64
2024-04-15T11:29:19.260Z,14.39
2024-04-15T11:31:51.511Z,14.29
2024-04-15T11:34:19.639Z,14.21
2024-04-15T11:36:49.680Z,14.10
2024-04-15T11:39:17.200Z,14.13
2024-04-15T11:41:47.750Z,14.03
2024-04-15T11:44:15.045Z,13.90
2024-04-15T11:46:44.982Z,13.91
2024-04-15T11:49:14.684Z,13.78
2024-04-15T11:51:46.765Z,14.08
2024-04-15T11:54:13.703Z,14.32
2024-04-15T11:56:43.543Z,14.70
2024-04-15T11:59:10.924Z,14.80
2024-04-15T12:01:40.508Z,14.91
2024-04-15T12:04:07.573Z,14.94
2024-04-15T12:06:39.853Z,14.66
2024-04-15T12:09:06.822Z,15.01
2024-04-15T12:11:36.415Z,15.23
2024-04-15T12:14:03.360Z,15.12
2024-04-15T12:16:32.921Z,15.16
2024-04-15T12:18:59.912Z,15.16
2024-04-15T12:21:31.696Z,15.20
2024-04-15T12:24:02.407Z,15.12
2024-04-15T12:26:32.988Z,15.11
2024-04-15T12:28:59.921Z,15.42
2024-04-15T12:31:29.485Z,15.17
2024-04-15T12:33:57.250Z,15.10
2024-04-15T12:36:26.845Z,15.15
2024-04-15T12:38:54.572Z,15.23
2024-04-15T12:41:26.711Z,15.21
2024-04-15T12:43:56.027Z,15.28
2024-04-15T12:46:26.129Z,15.10
2024-04-15T12:48:54.682Z,15.11
2024-04-15T12:51:24.204Z,15.09
2024-04-15T12:53:51.188Z,14.60
2024-04-15T12:56:20.905Z,14.76
2024-04-15T12:58:50.604Z,14.88
2024-04-15T13:01:20.249Z,14.74
2024-04-15T13:03:47.241Z,14.63
2024-04-15T13:06:17.072Z,14.59
2024-04-15T13:08:44.018Z,14.68
2024-04-15T13:11:13.678Z,14.82
2024-04-15T13:13:40.662Z,14.85
2024-04-15T13:16:12.856Z,14.96
2024-04-15T13:18:39.946Z,15.03
2024-04-15T13:21:13.101Z,15.24
2024-04-15T13:23:40.081Z,15.28
2024-04-15T13:26:09.578Z,15.00
2024-04-15T13:28:36.479Z,14.95
2024-04-15T13:31:06.586Z,14.75
2024-04-15T13:33:36.959Z,14.48
2024-04-15T13:36:07.887Z,14.76
2024-04-15T13:38:35.080Z,14.91
2024-04-15T13:41:04.773Z,14.96
2024-04-15T13:43:31.707Z,15.10
2024-04-15T13:46:04.814Z,15.26
2024-04-15T13:48:32.721Z,15.34
2024-04-15T13:51:05.249Z,15.57
2024-04-15T13:53:33.472Z,15.38
2024-04-15T13:56:03.078Z,14.82
2024-04-15T13:58:30.353Z,14.68
2024-04-15T14:01:00.311Z,14.70
2024-04-15T14:03:27.528Z,14.59
2024-04-15T14:05:57.182Z,14.51
2024-04-15T14:08:26.859Z,14.47
2024-04-15T14:10:57.106Z,14.42
2024-04-15T14:13:24.428Z,14.36
2024-04-15T14:15:54.137Z,14.16
2024-04-15T14:18:21.139Z,13.91
2024-04-15T14:20:50.747Z,13.91
2024-04-15T14:23:17.691Z,13.93
2024-04-15T14:25:49.884Z,13.84
2024-04-15T14:28:16.859Z,13.78
2024-04-15T14:30:46.430Z,13.65
2024-04-15T14:33:13.447Z,13.65
2024-04-15T14:35:43.095Z,13.71
2024-04-15T14:38:11.299Z,13.89
2024-04-15T14:40:41.162Z,13.61
2024-04-15T14:43:10.810Z,13.55
2024-04-15T14:45:40.370Z,13.54
2024-04-15T14:48:08.320Z,13.51
2024-04-15T14:50:40.793Z,13.39
2024-04-15T14:53:07.714Z,13.44
2024-04-15T14:55:37.606Z,13.76
2024-04-15T14:58:04.972Z,13.83
2024-04-15T15:00:37.174Z,13.76
2024-04-15T15:03:04.603Z,13.55
2024-04-15T15:05:34.267Z,13.85
2024-04-15T15:08:01.355Z,13.91
2024-04-15T15:10:30.966Z,13.55
2024-04-15T15:12:58.522Z,13.52
2024-04-15T15:15:28.056Z,13.37
2024-04-15T15:17:57.722Z,13.17
2024-04-15T15:20:27.607Z,13.18
2024-04-15T15:22:54.835Z,13.15
2024-04-15T15:25:25.349Z,13.20
2024-04-15T15:27:52.901Z,13.18
2024-04-15T15:30:23.701Z,13.19
2024-04-15T15:32:50.822Z,12.97
2024-04-15T15:35:23.120Z,12.88
2024-04-15T15:37:50.101Z,12.85
2024-04-15T15:40:19.789Z,12.78
2024-04-15T15:42:46.716Z,12.71
2024-04-15T15:45:17.155Z,12.70
2024-04-15T15:47:44.247Z,12.49
2024-04-15T15:50:14.015Z,12.53
2024-04-15T15:52:43.571Z,12.49
2024-04-15T15:55:13.427Z,12.40
2024-04-15T15:57:40.491Z,12.40
2024-04-15T16:00:12.095Z,12.48
2024-04-15T16:02:48.272Z,12.42
2024-04-15T16:05:20.185Z,12.31
2024-04-15T16:07:50.279Z,12.25
2024-04-15T16:10:20.047Z,12.22
2024-04-15T16:12:47.055Z,12.22
2024-04-15T16:15:16.767Z,12.19
2024-04-15T16:17:43.842Z,12.24
2024-04-15T16:20:14.362Z,12.24
2024-04-15T16:22:41.601Z,12.16
2024-04-15T16:25:13.923Z,12.09
2024-04-15T16:27:40.926Z,12.15
2024-04-15T16:30:11.426Z,12.18
2024-04-15T16:32:39.357Z,12.18
2024-04-15T16:35:09.631Z,11.96
2024-04-15T16:37:37.122Z,11.72
2024-04-15T16:40:07.591Z,11.22
2024-04-15T16:42:37.177Z,10.18
2024-04-15T16:45:07.458Z,9.25
2024-04-15T16:47:34.719Z,8.59
2024-04-15T16:50:04.370Z,7.93
2024-04-15T16:52:31.371Z,7.49
2024-04-15T16:55:01.004Z,7.19
2024-04-15T16:57:28.996Z,6.97
2024-04-15T17:00:01.165Z,6.73
2024-04-15T17:02:28.206Z,6.79
2024-04-15T17:04:57.735Z,6.49
2024-04-15T17:07:27.260Z,6.20
2024-04-15T17:09:58.009Z,6.18
2024-04-15T17:12:25.521Z,5.93
2024-04-15T17:14:55.175Z,5.98
2024-04-15T17:17:24.949Z,5.94
2024-04-15T17:19:55.291Z,5.96
2024-04-15T17:22:22.291Z,5.92
2024-04-15T17:24:51.995Z,5.69
2024-04-15T17:27:19.273Z,5.53
2024-04-15T17:29:50.220Z,5.41
2024-04-15T17:32:17.423Z,5.26
2024-04-15T17:34:49.610Z,4.97
2024-04-15T17:37:16.605Z,5.12
2024-04-15T17:39:50.082Z,5.06
2024-04-15T17:42:17.311Z,5.09
2024-04-15T17:44:49.763Z,5.01
2024-04-15T17:47:16.945Z,5.04
2024-04-15T17:49:49.319Z,5.20
2024-04-15T17:52:16.395Z,5.28
2024-04-15T17:54:47.097Z,5.14
2024-04-15T17:57:14.097Z,5.01
2024-04-15T17:59:43.915Z,4.86
2024-04-15T18:02:10.980Z,4.85
2024-04-15T18:04:40.663Z,4.93
2024-04-15T18:07:11.085Z,4.82
2024-04-15T18:09:40.776Z,4.93
2024-04-15T18:12:08.848Z,5.08
2024-04-15T18:14:38.563Z,5.04
2024-04-15T18:17:05.733Z,5.21
2024-04-15T18:19:35.401Z,4.96
2024-04-15T18:22:02.381Z,5.12
2024-04-15T18:24:34.968Z,5.39
2024-04-15T18:27:01.937Z,5.28
2024-04-15T18:29:31.434Z,5.04
2024-04-15T18:31:58.438Z,4.94
2024-04-15T18:34:28.861Z,5.12
2024-04-15T18:36:56.041Z,5.32
2024-04-15T18:39:25.569Z,5.41
2024-04-15T18:41:55.100Z,5.30
2024-04-15T18:44:24.656Z,5.39
2024-04-15T18:46:51.720Z,5.24
2024-04-15T18:49:21.808Z,5.17
2024-04-15T18:51:48.875Z,5.27
2024-04-15T18:54:18.383Z,4.96
2024-04-15T18:56:45.579Z,5.32
2024-04-15T18:59:17.781Z,5.29
2024-04-15T19:01:44.776Z,5.37
2024-04-15T19:04:14.403Z,5.32
2024-04-15T19:06:44.167Z,5.11
2024-04-15T19:09:13.683Z,5.27
2024-04-15T19:11:40.678Z,5.29
2024-04-15T19:14:10.471Z,5.35
2024-04-15T19:16:40.035Z,5.35
2024-04-15T19:19:09.546Z,5.44
2024-04-15T19:21:36.505Z,5.44
2024-04-15T19:24:06.302Z,5.37
2024-04-15T19:26:37.132Z,5.38
2024-04-15T19:29:07.029Z,5.40
2024-04-15T19:31:34.991Z,5.49
2024-04-15T19:34:07.253Z,5.54
2024-04-15T19:36:34.364Z,5.61
2024-04-15T19:39:03.868Z,5.51
2024-04-15T19:41:34.312Z,5.58
2024-04-15T19:44:03.826Z,5.67
2024-04-15T19:46:31.138Z,5.38
2024-04-15T19:49:00.719Z,5.49
2024-04-15T19:51:30.264Z,5.62
2024-04-15T19:53:59.805Z,5.61
2024-04-15T19:56:26.838Z,5.65
2024-04-15T19:58:57.729Z,5.77
2024-04-15T20:01:24.778Z,5.52
2024-04-15T20:03:54.362Z,5.60
2024-04-15T20:06:21.404Z,5.54
2024-04-15T20:08:53.784Z,5.76
2024-04-15T20:11:21.108Z,5.53
2024-04-15T20:13:50.654Z,5.59
2024-04-15T20:16:17.680Z,5.58
2024-04-15T20:18:54.838Z,5.55
2024-04-15T20:21:21.884Z,5.47
2024-04-15T20:23:53.998Z,5.61
2024-04-15T20:26:20.966Z,5.77
2024-04-15T20:28:50.620Z,5.81
2024-04-15T20:31:17.595Z,5.89
2024-04-15T20:33:47.174Z,6.03
2024-04-15T20:36:14.109Z,6.10
2024-04-15T20:38:44.849Z,6.05
2024-04-15T20:41:14.662Z,5.87
2024-04-15T20:43:44.382Z,5.93
2024-04-15T20:46:11.836Z,5.82
2024-04-15T20:48:41.500Z,5.89
2024-04-15T20:51:08.495Z,5.90
2024-04-15T20:53:37.999Z,5.94
2024-04-15T20:56:55.593Z,6.04
2024-04-15T20:59:27.746Z,5.92
2024-04-15T21:01:54.734Z,6.01
2024-04-15T21:04:25.339Z,5.93
2024-04-15T21:06:53.546Z,5.99
2024-04-15T21:09:23.170Z,5.93
2024-04-15T21:11:50.076Z,5.64
2024-04-15T21:14:19.610Z,5.59
2024-04-15T21:16:49.302Z,5.86
2024-04-15T21:19:18.878Z,5.89
2024-04-15T21:21:45.826Z,5.97
2024-04-15T21:24:15.588Z,5.98
2024-04-15T21:26:42.649Z,5.95
2024-04-15T21:29:12.178Z,6.11
2024-04-15T21:31:39.157Z,6.08
2024-04-15T21:34:11.371Z,5.93
2024-04-15T21:36:38.279Z,5.98
2024-04-15T21:39:07.817Z,6.10
2024-04-15T21:41:34.733Z,6.00
2024-04-15T21:44:04.834Z,5.94
2024-04-15T21:46:31.837Z,6.02
2024-04-15T21:49:01.431Z,5.86
2024-04-15T21:51:31.085Z,5.92
2024-04-15T21:54:00.602Z,5.84
2024-04-15T21:56:27.764Z,5.86
2024-04-15T21:58:57.285Z,6.05
2024-04-15T22:01:24.313Z,5.86
2024-04-15T22:03:56.007Z,5.79
2024-04-15T22:06:23.640Z,5.80
2024-04-15T22:08:55.789Z,5.75
2024-04-15T22:11:22.775Z,5.71
2024-04-15T22:13:52.292Z,5.83
2024-04-15T22:16:19.351Z,5.89
2024-04-15T22:18:48.988Z,5.82
2024-04-15T22:21:15.886Z,6.04
2024-04-15T22:23:45.386Z,6.02
2024-04-15T22:26:16.110Z,6.00
2024-04-15T22:28:45.661Z,5.91
2024-04-15T22:31:15.226Z,5.98
2024-04-15T22:33:42.182Z,6.11
2024-04-15T22:36:11.791Z,6.19
2024-04-15T22:38:38.684Z,6.08
2024-04-15T22:41:08.215Z,6.12
2024-04-15T22:43:37.750Z,6.11
2024-04-15T22:46:07.604Z,5.95
2024-04-15T22:48:34.631Z,5.86
2024-04-15T22:51:05.051Z,5.86
2024-04-15T22:53:31.950Z,6.06
2024-04-15T22:56:01.621Z,6.05
2024-04-15T22:58:28.584Z,6.00
2024-04-15T23:01:00.870Z,6.09
2024-04-15T23:03:27.868Z,6.07
2024-04-15T23:05:57.423Z,6.05
2024-04-15T23:08:24.343Z,6.02
2024-04-15T23:10:54.880Z,6.09
2024-04-15T23:13:22.019Z,6.03
2024-04-15T23:15:51.578Z,6.13
2024-04-15T23:18:21.301Z,6.09
2024-04-15T23:20:50.883Z,5.94
2024-04-15T23:23:18.419Z,5.90
2024-04-15T23:25:48.162Z,5.91
2024-04-15T23:28:15.423Z,5.99
2024-04-15T23:30:45.648Z,6.09
2024-04-15T23:33:12.702Z,6.02
2024-04-15T23:35:44.809Z,6.14
2024-04-15T23:38:11.827Z,6.06
2024-04-15T23:40:43.058Z,5.87
2024-04-15T23:43:09.973Z,5.86
2024-04-15T23:45:59.146Z,5.74
2024-04-15T23:48:44.749Z,5.75
2024-04-15T23:51:38.809Z,5.73
2024-04-15T23:54:24.401Z,5.75
2024-04-15T23:57:12.959Z,5.82
2024-04-15T23:59:39.906Z,5.72
